createdAt,value
2019-04-28T00:00:31.447Z,77.5
2019-04-28T00:01:18.874Z,77.6
2019-04-28T00:02:07.062Z,77.7
2019-04-28T00:03:01.843Z,77.8
2019-04-28T00:03:48.790Z,77.9
2019-04-28T00:04:37.037Z,77.7
2019-04-28T00:05:25.133Z,77.7
2019-04-28T00:06:13.320Z,77.6
2019-04-28T00:07:07.443Z,77.8
2019-04-28T00:07:55.072Z,77.7
2019-04-28T00:08:43.212Z,77.8
2019-04-28T00:09:31.464Z,77.5
2019-04-28T00:10:20.938Z,77.4
2019-04-28T00:10:32.050Z,77.4
2019-04-28T00:11:05.838Z,77.4
2019-04-28T00:11:53.442Z,77.5
2019-04-28T00:12:41.640Z,77.9
2019-04-28T00:13:29.846Z,77.9
2019-04-28T00:14:17.980Z,78.1
2019-04-28T00:15:12.094Z,77.9
2019-04-28T00:16:01.491Z,77.8
2019-04-28T00:16:47.922Z,77.4
2019-04-28T00:17:36.082Z,77.5
2019-04-28T00:18:24.230Z,77.7
2019-04-28T00:19:18.346Z,77.6
2019-04-28T00:20:05.971Z,77.6
2019-04-28T00:20:54.162Z,77.5
2019-04-28T00:21:42.322Z,77.7
2019-04-28T00:22:30.819Z,77.5
2019-04-28T00:23:24.612Z,77.5
2019-04-28T00:24:12.227Z,77.6
2019-04-28T00:25:01.595Z,77.6
2019-04-28T00:25:48.570Z,77.8
2019-04-28T00:26:36.776Z,77.7
2019-04-28T00:27:31.585Z,77.5
2019-04-28T00:28:18.462Z,77.4
2019-04-28T00:29:06.659Z,77.0
2019-04-28T00:29:54.850Z,76.9
2019-04-28T00:30:42.989Z,76.6
2019-04-28T00:31:37.184Z,76.6
2019-04-28T00:32:24.733Z,76.7
2019-04-28T00:33:12.894Z,76.7
2019-04-28T00:34:01.486Z,76.6
2019-04-28T00:34:51.005Z,76.4
2019-04-28T00:35:43.354Z,76.7
2019-04-28T00:36:31.344Z,76.2
2019-04-28T00:37:21.013Z,76.3
2019-04-28T00:38:07.320Z,76.7
2019-04-28T00:38:55.487Z,76.6
2019-04-28T00:39:50.979Z,76.8
2019-04-28T00:40:37.225Z,77.0
2019-04-28T00:41:25.398Z,76.6
2019-04-28T00:42:13.599Z,76.2
2019-04-28T00:43:01.754Z,76.6
2019-04-28T00:43:55.905Z,76.5
2019-04-28T00:44:43.640Z,76.5
2019-04-28T00:45:31.659Z,76.7
2019-04-28T00:46:21.081Z,76.9
2019-04-28T00:47:08.009Z,76.5
2019-04-28T00:48:02.136Z,76.5
2019-04-28T00:48:50.874Z,76.5
2019-04-28T00:49:37.905Z,76.7
2019-04-28T00:50:26.076Z,77.0
2019-04-28T00:51:14.251Z,77.1
2019-04-28T00:52:08.333Z,77.1
2019-04-28T00:52:55.997Z,76.5
2019-04-28T00:53:44.248Z,76.5
2019-04-28T00:54:32.359Z,76.6
2019-04-28T00:55:20.998Z,76.5
2019-04-28T00:56:14.715Z,76.4
2019-04-28T00:57:02.229Z,76.1
2019-04-28T00:57:50.932Z,76.3
2019-04-28T00:58:38.583Z,76.4
2019-04-28T00:59:26.783Z,76.1
2019-04-28T01:00:21.534Z,76.3
2019-04-28T01:01:08.497Z,76.6
2019-04-28T01:01:56.668Z,76.3
2019-04-28T01:02:44.845Z,76.4
2019-04-28T01:03:33.007Z,76.4
2019-04-28T01:04:27.145Z,76.3
2019-04-28T01:05:14.741Z,76.1
2019-04-28T01:06:02.924Z,75.6
2019-04-28T01:06:52.009Z,75.7
2019-04-28T01:07:41.170Z,76.0
2019-04-28T01:08:33.402Z,75.8
2019-04-28T01:09:21.798Z,75.9
2019-04-28T01:10:09.184Z,75.6
2019-04-28T01:10:57.334Z,75.7
2019-04-28T01:11:45.535Z,75.7
2019-04-28T01:12:41.109Z,75.7
2019-04-28T01:13:27.247Z,75.8
2019-04-28T01:14:15.441Z,75.5
2019-04-28T01:15:04.885Z,75.7
2019-04-28T01:15:51.761Z,75.6
2019-04-28T01:16:45.839Z,75.6
2019-04-28T01:17:33.462Z,75.8
2019-04-28T01:18:21.802Z,76.0
2019-04-28T01:19:10.140Z,76.1
2019-04-28T01:19:59.722Z,75.9
2019-04-28T01:20:52.148Z,75.6
2019-04-28T01:21:41.561Z,75.2
2019-04-28T01:22:27.880Z,75.3
2019-04-28T01:23:16.063Z,75.1
2019-04-28T01:24:04.215Z,75.1
2019-04-28T01:24:59.576Z,75.4
2019-04-28T01:25:45.923Z,75.6
2019-04-28T01:26:34.114Z,75.3
2019-04-28T01:27:22.296Z,75.0
2019-04-28T01:28:10.478Z,75.2
2019-04-28T01:29:04.542Z,75.4
2019-04-28T01:30:05.177Z,75.3
2019-04-28T01:30:40.328Z,75.2
2019-04-28T01:31:29.453Z,75.3
2019-04-28T01:32:16.668Z,75.3
2019-04-28T01:33:10.767Z,74.9
2019-04-28T01:34:00.089Z,74.8
2019-04-28T01:34:46.548Z,75.0
2019-04-28T01:35:34.732Z,75.3
2019-04-28T01:36:22.895Z,75.1
2019-04-28T01:37:16.962Z,75.1
2019-04-28T01:38:04.639Z,75.1
2019-04-28T01:38:52.804Z,75.3
2019-04-28T01:39:41.319Z,75.4
2019-04-28T01:40:30.437Z,75.4
2019-04-28T01:41:23.239Z,75.5
2019-04-28T01:42:10.846Z,75.1
2019-04-28T01:42:59.755Z,75.2
2019-04-28T01:43:47.174Z,74.9
2019-04-28T01:44:35.372Z,74.9
2019-04-28T01:45:30.080Z,74.9
2019-04-28T01:46:17.097Z,75.1
2019-04-28T01:47:05.237Z,75.2
2019-04-28T01:47:53.420Z,75.1
2019-04-28T01:48:41.614Z,74.9
2019-04-28T01:49:35.699Z,74.8
2019-04-28T01:50:23.327Z,75.2
2019-04-28T01:51:11.488Z,75.2
2019-04-28T01:52:00.816Z,75.1
2019-04-28T01:52:49.730Z,75.2
2019-04-28T01:53:41.946Z,75.2
2019-04-28T01:54:30.219Z,75.2
2019-04-28T01:55:17.733Z,75.3
2019-04-28T01:56:05.908Z,75.5
2019-04-28T01:56:54.091Z,75.8
2019-04-28T01:57:49.785Z,76.1
2019-04-28T01:58:35.778Z,76.0
2019-04-28T01:59:23.954Z,75.5
2019-04-28T02:00:22.193Z,75.6
2019-04-28T02:01:00.483Z,75.6
2019-04-28T02:01:54.381Z,75.6
2019-04-28T02:02:42.003Z,75.6
2019-04-28T02:03:30.772Z,75.7
2019-04-28T02:04:19.770Z,75.9
2019-04-28T02:05:06.533Z,76.3
2019-04-28T02:06:00.584Z,76.5
2019-04-28T02:06:49.747Z,76.0
2019-04-28T02:07:36.409Z,75.9
2019-04-28T02:08:24.553Z,76.0
2019-04-28T02:09:12.729Z,76.5
2019-04-28T02:10:06.854Z,76.3
2019-04-28T02:10:54.437Z,76.6
2019-04-28T02:11:42.625Z,76.6
2019-04-28T02:12:30.785Z,76.4
2019-04-28T02:13:19.866Z,76.9
2019-04-28T02:14:13.026Z,77.0
2019-04-28T02:15:01.226Z,77.3
2019-04-28T02:15:50.045Z,77.4
2019-04-28T02:16:37.024Z,77.2
2019-04-28T02:17:25.162Z,77.2
2019-04-28T02:18:19.931Z,77.3
2019-04-28T02:19:06.874Z,77.4
2019-04-28T02:20:43.241Z,78.0
2019-04-28T02:21:31.428Z,77.9
2019-04-28T02:22:24.953Z,77.5
2019-04-28T02:23:13.766Z,77.8
2019-04-28T02:24:01.305Z,77.5
2019-04-28T02:24:50.484Z,77.3
2019-04-28T02:25:37.643Z,77.6
2019-04-28T02:26:31.164Z,77.4
2019-04-28T02:27:20.350Z,77.0
2019-04-28T02:28:09.406Z,77.3
2019-04-28T02:28:55.657Z,77.6
2019-04-28T02:29:43.831Z,77.7
2019-04-28T02:30:47.873Z,77.8
2019-04-28T02:31:26.064Z,77.5
2019-04-28T02:32:13.714Z,77.9
2019-04-28T02:33:02.023Z,77.7
2019-04-28T02:33:50.501Z,77.7
2019-04-28T02:34:43.576Z,77.6
2019-04-28T02:35:34.212Z,77.6
2019-04-28T02:36:20.700Z,77.3
2019-04-28T02:37:11.003Z,77.5
2019-04-28T02:37:56.275Z,77.5
2019-04-28T02:38:51.337Z,77.8
2019-04-28T02:39:40.916Z,78.0
2019-04-28T02:40:24.693Z,78.0
2019-04-28T02:40:25.053Z,78.1
2019-04-28T02:41:06.800Z,77.9
2019-04-28T02:41:54.968Z,77.8
2019-04-28T02:42:48.506Z,77.2
2019-04-28T02:43:37.261Z,77.0
2019-04-28T02:44:24.841Z,77.0
2019-04-28T02:45:13.027Z,76.8
2019-04-28T02:46:01.196Z,76.7
2019-04-28T02:46:54.714Z,76.9
2019-04-28T02:47:43.425Z,77.0
2019-04-28T02:48:31.246Z,77.2
2019-04-28T02:49:20.285Z,77.4
2019-04-28T02:50:07.421Z,77.1
2019-04-28T02:51:01.333Z,77.3
2019-04-28T02:51:50.615Z,77.3
2019-04-28T02:52:37.267Z,77.2
2019-04-28T02:53:25.439Z,77.3
2019-04-28T02:54:13.595Z,77.3
2019-04-28T02:55:07.143Z,77.4
2019-04-28T02:55:55.852Z,77.1
2019-04-28T02:56:43.818Z,76.7
2019-04-28T02:57:31.648Z,76.7
2019-04-28T02:58:22.466Z,76.7
2019-04-28T02:59:13.356Z,76.7
2019-04-28T02:59:45.015Z,76.7
2019-04-28T02:59:56.292Z,76.6
2019-04-28T03:01:01.026Z,76.8
2019-04-28T03:01:32.246Z,76.8
2019-04-28T03:02:21.034Z,76.8
2019-04-28T03:03:13.843Z,76.6
2019-04-28T03:04:02.571Z,76.4
2019-04-28T03:04:50.771Z,76.9
2019-04-28T03:05:40.999Z,76.3
2019-04-28T03:06:26.534Z,76.3
2019-04-28T03:07:21.712Z,76.6
2019-04-28T03:08:11.151Z,76.8
2019-04-28T03:08:56.393Z,76.7
2019-04-28T03:09:44.573Z,76.8
2019-04-28T03:10:32.764Z,76.8
2019-04-28T03:11:26.287Z,77.1
2019-04-28T03:12:21.577Z,77.0
2019-04-28T03:13:02.614Z,77.1
2019-04-28T03:13:51.242Z,76.5
2019-04-28T03:14:43.421Z,76.4
2019-04-28T03:15:32.512Z,76.5
2019-04-28T03:16:23.182Z,76.3
2019-04-28T03:17:11.009Z,76.2
2019-04-28T03:17:57.017Z,76.3
2019-04-28T03:18:45.193Z,76.3
2019-04-28T03:19:41.603Z,76.6
2019-04-28T03:20:27.462Z,76.9
2019-04-28T03:21:15.120Z,77.1
2019-04-28T03:22:03.255Z,77.1
2019-04-28T03:22:51.426Z,77.0
2019-04-28T03:23:44.996Z,77.0
2019-04-28T03:24:33.706Z,77.0
2019-04-28T03:25:21.355Z,77.2
2019-04-28T03:26:11.217Z,77.2
2019-04-28T03:26:57.652Z,77.2
2019-04-28T03:27:51.224Z,77.3
2019-04-28T03:28:41.456Z,77.3
2019-04-28T03:29:27.554Z,77.7
2019-04-28T03:30:15.744Z,77.9
2019-04-28T03:31:34.987Z,77.2
2019-04-28T03:32:18.377Z,77.2
2019-04-28T03:32:53.711Z,77.5
2019-04-28T03:33:41.486Z,77.4
2019-04-28T03:34:23.320Z,77.7
2019-04-28T03:35:12.997Z,77.8
2019-04-28T03:36:08.426Z,77.7
2019-04-28T03:36:52.411Z,77.8
2019-04-28T03:37:41.337Z,77.7
2019-04-28T03:38:30.839Z,77.7
2019-04-28T03:39:16.388Z,78.2
2019-04-28T03:40:11.460Z,78.2
2019-04-28T03:41:00.988Z,77.9
2019-04-28T03:41:46.286Z,77.8
2019-04-28T03:42:34.448Z,78.0
2019-04-28T03:43:22.644Z,78.1
2019-04-28T03:44:16.185Z,78.2
2019-04-28T03:45:04.888Z,78.1
2019-04-28T03:45:52.530Z,78.2
2019-04-28T03:46:41.416Z,78.5
2019-04-28T03:47:31.188Z,79.0
2019-04-28T03:48:22.415Z,79.0
2019-04-28T03:49:11.130Z,79.3
2019-04-28T03:50:00.071Z,79.4
2019-04-28T03:50:46.943Z,79.0
2019-04-28T03:50:51.398Z,79.0
2019-04-28T03:51:30.677Z,79.0
2019-04-28T03:52:21.777Z,79.1
2019-04-28T03:53:11.158Z,79.4
2019-04-28T03:54:02.383Z,79.7
2019-04-28T03:54:46.139Z,80.1
2019-04-28T03:55:35.021Z,80.3
2019-04-28T03:56:27.858Z,80.4
2019-04-28T03:57:16.586Z,80.9
2019-04-28T03:58:04.223Z,80.7
2019-04-28T03:58:52.360Z,80.5
2019-04-28T03:59:43.339Z,80.8
2019-04-28T04:00:34.063Z,80.9
2019-04-28T04:01:22.806Z,80.7
2019-04-28T04:02:11.216Z,80.5
2019-04-28T04:03:00.812Z,80.5
2019-04-28T04:03:46.745Z,79.6
2019-04-28T04:04:41.470Z,79.4
2019-04-28T04:05:30.641Z,79.7
2019-04-28T04:06:16.661Z,80.2
2019-04-28T04:07:04.837Z,80.3
2019-04-28T04:07:53.017Z,80.5
2019-04-28T04:08:01.359Z,80.5
2019-04-28T04:08:45.264Z,80.6
2019-04-28T04:09:33.972Z,80.3
2019-04-28T04:10:21.634Z,80.3
2019-04-28T04:11:10.821Z,80.3
2019-04-28T04:11:57.947Z,80.4
2019-04-28T04:12:22.867Z,80.4
2019-04-28T04:12:41.223Z,80.5
2019-04-28T04:13:32.418Z,80.7
2019-04-28T04:14:15.995Z,80.4
2019-04-28T04:15:04.214Z,80.7
2019-04-28T04:15:54.151Z,80.8
2019-04-28T04:16:45.849Z,81.2
2019-04-28T04:17:34.599Z,81.6
2019-04-28T04:18:22.180Z,81.5
2019-04-28T04:19:10.700Z,82.0
2019-04-28T04:20:01.593Z,81.5
2019-04-28T04:20:52.053Z,81.8
2019-04-28T04:21:40.953Z,81.8
2019-04-28T04:22:31.198Z,81.7
2019-04-28T04:23:16.573Z,81.6
2019-04-28T04:24:04.752Z,82.3
2019-04-28T04:24:58.344Z,82.4
2019-04-28T04:25:46.984Z,82.0
2019-04-28T04:26:34.605Z,82.1
2019-04-28T04:27:22.793Z,81.5
2019-04-28T04:28:10.949Z,81.4
2019-04-28T04:29:04.508Z,81.6
2019-04-28T04:29:53.247Z,81.8
2019-04-28T04:30:41.233Z,82.6
2019-04-28T04:31:31.483Z,82.5
2019-04-28T04:32:23.342Z,81.9
2019-04-28T04:33:11.305Z,81.1
2019-04-28T04:34:02.601Z,81.5
2019-04-28T04:34:47.057Z,81.7
2019-04-28T04:35:35.212Z,81.6
2019-04-28T04:36:23.418Z,81.7
2019-04-28T04:37:16.936Z,81.6
2019-04-28T04:38:05.689Z,81.1
2019-04-28T04:38:53.284Z,81.7
2019-04-28T04:39:41.467Z,81.7
2019-04-28T04:40:31.794Z,80.4
2019-04-28T04:41:23.191Z,80.2
2019-04-28T04:42:12.377Z,80.3
2019-04-28T04:43:01.513Z,80.2
2019-04-28T04:43:47.670Z,79.8
2019-04-28T04:44:31.013Z,79.8
2019-04-28T04:44:32.287Z,79.7
2019-04-28T04:45:25.841Z,80.2
2019-04-28T04:46:14.735Z,80.3
2019-04-28T04:47:02.177Z,79.6
2019-04-28T04:47:50.490Z,79.6
2019-04-28T04:48:40.672Z,79.9
2019-04-28T04:49:32.042Z,80.4
2019-04-28T04:50:21.005Z,80.5
2019-04-28T04:51:10.743Z,80.8
2019-04-28T04:51:56.562Z,80.8
2019-04-28T04:52:44.712Z,80.3
2019-04-28T04:53:40.619Z,80.6
2019-04-28T04:54:27.023Z,80.4
2019-04-28T04:55:14.596Z,80.5
2019-04-28T04:56:02.752Z,80.0
2019-04-28T04:56:50.959Z,80.2
2019-04-28T04:57:44.468Z,79.8
2019-04-28T04:58:33.211Z,80.1
2019-04-28T04:59:20.817Z,79.8
2019-04-28T05:00:10.060Z,79.8
2019-04-28T05:00:57.153Z,80.1
2019-04-28T05:01:00.716Z,80.1
2019-04-28T05:01:43.497Z,80.0
2019-04-28T05:02:33.144Z,80.0
2019-04-28T05:03:21.153Z,79.9
2019-04-28T05:04:09.595Z,79.3
2019-04-28T05:04:56.176Z,79.0
2019-04-28T05:05:50.212Z,79.1
2019-04-28T05:06:39.783Z,79.5
2019-04-28T05:07:26.080Z,79.7
2019-04-28T05:08:15.654Z,80.2
2019-04-28T05:09:02.404Z,80.3
2019-04-28T05:09:55.937Z,79.8
2019-04-28T05:10:44.681Z,79.7
2019-04-28T05:11:32.308Z,79.3
2019-04-28T05:12:20.468Z,79.7
2019-04-28T05:13:10.198Z,79.7
2019-04-28T05:14:02.157Z,79.6
2019-04-28T05:14:50.884Z,79.8
2019-04-28T05:15:40.042Z,80.1
2019-04-28T05:16:26.649Z,80.5
2019-04-28T05:17:14.859Z,80.6
2019-04-28T05:18:10.122Z,79.8
2019-04-28T05:18:20.066Z,79.8
2019-04-28T05:18:50.038Z,79.5
2019-04-28T05:19:37.593Z,79.6
2019-04-28T05:20:25.776Z,79.6
2019-04-28T05:21:13.926Z,79.3
2019-04-28T05:22:07.471Z,79.4
2019-04-28T05:22:56.296Z,79.8
2019-04-28T05:23:43.824Z,80.2
2019-04-28T05:24:31.998Z,80.7
2019-04-28T05:25:20.498Z,80.9
2019-04-28T05:26:13.716Z,80.8
2019-04-28T05:27:02.418Z,80.0
2019-04-28T05:27:50.116Z,79.6
2019-04-28T05:28:43.966Z,80.0
2019-04-28T05:29:27.859Z,80.5
2019-04-28T05:30:20.449Z,80.7
2019-04-28T05:31:13.577Z,80.5
2019-04-28T05:31:59.871Z,79.9
2019-04-28T05:32:49.495Z,79.9
2019-04-28T05:33:34.063Z,80.0
2019-04-28T05:34:26.177Z,80.4
2019-04-28T05:35:17.493Z,80.8
2019-04-28T05:36:03.151Z,80.9
2019-04-28T05:36:50.688Z,81.0
2019-04-28T05:37:40.456Z,80.6
2019-04-28T05:38:32.399Z,80.1
2019-04-28T05:39:21.127Z,79.5
2019-04-28T05:40:10.507Z,79.4
2019-04-28T05:40:56.934Z,79.4
2019-04-28T05:41:45.169Z,79.6
2019-04-28T05:42:39.417Z,80.1
2019-04-28T05:43:27.432Z,79.8
2019-04-28T05:44:14.999Z,79.8
2019-04-28T05:45:03.152Z,79.9
2019-04-28T05:45:51.321Z,80.2
2019-04-28T05:46:44.871Z,80.4
2019-04-28T05:47:33.623Z,80.6
2019-04-28T05:48:21.226Z,81.2
2019-04-28T05:49:10.278Z,80.9
2019-04-28T05:49:57.558Z,80.9
2019-04-28T05:50:51.157Z,79.7
2019-04-28T05:51:40.298Z,78.9
2019-04-28T05:52:27.482Z,79.4
2019-04-28T05:53:15.696Z,79.9
2019-04-28T05:54:03.831Z,80.0
2019-04-28T05:54:57.361Z,79.9
2019-04-28T05:55:46.162Z,80.4
2019-04-28T05:56:22.573Z,80.4
2019-04-28T05:56:24.744Z,80.2
2019-04-28T05:57:12.938Z,80.7
2019-04-28T05:58:01.096Z,80.8
2019-04-28T05:58:54.678Z,81.1
2019-04-28T05:59:43.364Z,81.2
2019-04-28T06:00:31.008Z,81.3
2019-04-28T06:01:20.391Z,81.0
2019-04-28T06:02:07.335Z,80.6
2019-04-28T06:03:00.895Z,80.5
2019-04-28T06:03:49.768Z,80.4
2019-04-28T06:04:37.270Z,80.8
2019-04-28T06:05:25.470Z,80.9
2019-04-28T06:06:13.610Z,80.1
2019-04-28T06:07:07.164Z,80.1
2019-04-28T06:07:55.919Z,79.9
2019-04-28T06:08:43.528Z,79.9
2019-04-28T06:09:31.706Z,80.1
2019-04-28T06:10:20.266Z,80.0
2019-04-28T06:11:13.457Z,80.4
2019-04-28T06:12:02.150Z,80.6
2019-04-28T06:12:49.794Z,80.9
2019-04-28T06:12:59.626Z,80.9
2019-04-28T06:13:36.169Z,80.5
2019-04-28T06:14:24.947Z,80.0
2019-04-28T06:15:17.922Z,79.6
2019-04-28T06:16:06.647Z,78.7
2019-04-28T06:16:54.279Z,78.6
2019-04-28T06:17:42.460Z,78.8
2019-04-28T06:18:30.829Z,79.2
2019-04-28T06:19:24.194Z,78.7
2019-04-28T06:20:12.955Z,79.0
2019-04-28T06:21:00.746Z,79.7
2019-04-28T06:21:48.717Z,79.4
2019-04-28T06:22:37.496Z,79.4
2019-04-28T06:23:30.455Z,79.8
2019-04-28T06:24:19.189Z,80.0
2019-04-28T06:25:06.809Z,78.9
2019-04-28T06:25:55.031Z,78.8
2019-04-28T06:26:43.160Z,78.2
2019-04-28T06:27:36.736Z,78.1
2019-04-28T06:28:25.428Z,78.3
2019-04-28T06:29:13.078Z,78.0
2019-04-28T06:30:01.813Z,78.0
2019-04-28T06:30:02.193Z,77.6
2019-04-28T06:30:49.504Z,78.5
2019-04-28T06:31:42.967Z,78.5
2019-04-28T06:32:31.726Z,78.0
2019-04-28T06:33:19.335Z,78.2
2019-04-28T06:34:07.506Z,78.7
2019-04-28T06:34:55.713Z,79.0
2019-04-28T06:35:49.252Z,78.7
2019-04-28T06:36:37.983Z,78.9
2019-04-28T06:37:25.572Z,78.8
2019-04-28T06:38:13.764Z,78.8
2019-04-28T06:39:01.954Z,78.7
2019-04-28T06:39:55.523Z,78.6
2019-04-28T06:40:44.215Z,78.7
2019-04-28T06:41:31.859Z,77.9
2019-04-28T06:42:20.017Z,78.2
2019-04-28T06:43:08.214Z,78.3
2019-04-28T06:44:01.757Z,78.5
2019-04-28T06:44:50.539Z,78.2
2019-04-28T06:45:38.136Z,78.5
2019-04-28T06:46:26.299Z,78.4
2019-04-28T06:47:16.739Z,78.2
2019-04-28T06:48:08.040Z,78.2
2019-04-28T06:48:56.760Z,78.2
2019-04-28T06:49:44.372Z,77.8
2019-04-28T06:50:32.596Z,77.3
2019-04-28T06:51:20.734Z,77.2
2019-04-28T06:52:14.287Z,77.7
2019-04-28T06:53:03.144Z,78.1
2019-04-28T06:53:50.657Z,77.6
2019-04-28T06:54:38.814Z,77.5
2019-04-28T06:55:26.997Z,77.8
2019-04-28T06:56:20.551Z,78.4
2019-04-28T06:57:09.306Z,78.3
2019-04-28T06:57:56.942Z,77.6
2019-04-28T06:58:45.093Z,78.0
2019-04-28T06:59:33.269Z,78.4
2019-04-28T07:00:26.848Z,78.2
2019-04-28T07:01:15.571Z,78.3
2019-04-28T07:02:03.191Z,78.4
2019-04-28T07:02:51.367Z,77.5
2019-04-28T07:03:39.560Z,76.6
2019-04-28T07:04:33.103Z,75.9
2019-04-28T07:05:21.853Z,76.4
2019-04-28T07:06:09.456Z,76.2
2019-04-28T07:06:57.679Z,76.8
2019-04-28T07:07:45.837Z,75.9
2019-04-28T07:08:39.373Z,75.1
2019-04-28T07:09:28.240Z,74.7
2019-04-28T07:10:15.751Z,75.1
2019-04-28T07:11:03.961Z,75.7
2019-04-28T07:11:52.110Z,75.9
2019-04-28T07:12:45.688Z,76.3
2019-04-28T07:13:34.429Z,77.0
2019-04-28T07:14:22.029Z,77.2
2019-04-28T07:15:10.200Z,76.9
2019-04-28T07:15:58.386Z,76.4
2019-04-28T07:16:51.960Z,75.7
2019-04-28T07:17:40.721Z,74.8
2019-04-28T07:18:01.176Z,74.8
2019-04-28T07:18:21.283Z,75.0
2019-04-28T07:19:09.477Z,75.0
2019-04-28T07:19:57.643Z,74.9
2019-04-28T07:20:51.202Z,73.5
2019-04-28T07:21:39.974Z,73.8
2019-04-28T07:22:27.572Z,74.2
2019-04-28T07:23:15.767Z,74.1
2019-04-28T07:24:03.934Z,73.5
2019-04-28T07:24:57.492Z,73.8
2019-04-28T07:25:46.245Z,74.5
2019-04-28T07:26:06.996Z,74.5
2019-04-28T07:26:27.420Z,74.9
2019-04-28T07:27:15.620Z,75.1
2019-04-28T07:28:03.790Z,75.6
2019-04-28T07:28:57.369Z,75.8
2019-04-28T07:29:46.122Z,74.9
2019-04-28T07:30:33.704Z,74.7
2019-04-28T07:31:21.910Z,74.2
2019-04-28T07:32:10.127Z,73.0
2019-04-28T07:33:03.659Z,72.9
2019-04-28T07:33:52.435Z,73.2
2019-04-28T07:34:40.020Z,72.4
2019-04-28T07:35:28.201Z,72.1
2019-04-28T07:36:16.389Z,72.8
2019-04-28T07:37:09.968Z,72.4
2019-04-28T07:37:58.746Z,72.2
2019-04-28T07:38:46.341Z,72.0
2019-04-28T07:39:34.553Z,71.6
2019-04-28T07:40:22.700Z,71.5
2019-04-28T07:41:16.290Z,71.8
2019-04-28T07:42:05.104Z,72.0
2019-04-28T07:42:52.674Z,71.6
2019-04-28T07:43:26.440Z,71.6
2019-04-28T07:43:37.768Z,71.6
2019-04-28T07:44:25.941Z,71.5
2019-04-28T07:45:19.473Z,72.1
2019-04-28T07:46:08.333Z,72.3
2019-04-28T07:46:55.863Z,72.0
2019-04-28T07:47:44.076Z,71.3
2019-04-28T07:48:32.225Z,71.8
2019-04-28T07:49:25.794Z,71.4
2019-04-28T07:50:14.551Z,71.5
2019-04-28T07:51:02.184Z,70.9
2019-04-28T07:51:50.434Z,71.1
2019-04-28T07:52:38.567Z,71.2
2019-04-28T07:53:32.151Z,70.6
2019-04-28T07:54:20.857Z,70.1
2019-04-28T07:55:08.502Z,69.5
2019-04-28T07:55:56.703Z,69.8
2019-04-28T07:56:44.897Z,70.3
2019-04-28T07:57:38.448Z,69.4
2019-04-28T07:58:28.110Z,68.7
2019-04-28T07:59:14.831Z,68.7
2019-04-28T08:00:03.040Z,68.6
2019-04-28T08:00:51.242Z,68.4
2019-04-28T08:01:44.807Z,69.1
2019-04-28T08:02:33.536Z,68.5
2019-04-28T08:03:21.167Z,67.6
2019-04-28T08:04:09.412Z,67.5
2019-04-28T08:04:57.564Z,67.2
2019-04-28T08:05:51.124Z,67.6
2019-04-28T08:06:39.906Z,67.2
2019-04-28T08:07:27.509Z,67.8
2019-04-28T08:08:15.705Z,68.6
2019-04-28T08:09:03.921Z,68.8
2019-04-28T08:09:57.498Z,69.2
2019-04-28T08:10:46.318Z,68.2
2019-04-28T08:11:33.851Z,67.9
2019-04-28T08:11:44.360Z,67.9
2019-04-28T08:12:13.891Z,68.0
2019-04-28T08:13:02.093Z,67.3
2019-04-28T08:13:55.598Z,67.2
2019-04-28T08:14:44.331Z,67.1
2019-04-28T08:15:32.015Z,66.0
2019-04-28T08:16:20.215Z,65.9
2019-04-28T08:17:08.370Z,65.8
2019-04-28T08:18:01.949Z,65.8
2019-04-28T08:18:50.723Z,65.7
2019-04-28T08:19:38.345Z,65.2
2019-04-28T08:20:26.533Z,65.3
2019-04-28T08:21:14.735Z,64.3
2019-04-28T08:22:08.327Z,64.5
2019-04-28T08:22:57.114Z,64.7
2019-04-28T08:23:47.223Z,65.9
2019-04-28T08:24:32.923Z,66.4
2019-04-28T08:25:21.119Z,65.8
2019-04-28T08:26:14.705Z,65.5
2019-04-28T08:27:03.530Z,65.1
2019-04-28T08:27:51.101Z,65.1
2019-04-28T08:28:39.292Z,64.9
2019-04-28T08:29:27.465Z,65.3
2019-04-28T08:30:21.040Z,65.1
2019-04-28T08:31:09.804Z,64.9
2019-04-28T08:31:57.438Z,64.8
2019-04-28T08:32:45.646Z,65.3
2019-04-28T08:33:33.859Z,65.0
2019-04-28T08:34:27.417Z,65.4
2019-04-28T08:35:16.264Z,66.0
2019-04-28T08:36:03.848Z,65.9
2019-04-28T08:36:52.064Z,65.8
2019-04-28T08:37:40.265Z,65.3
2019-04-28T08:38:33.805Z,65.1
2019-04-28T08:39:24.161Z,65.3
2019-04-28T08:40:10.318Z,65.2
2019-04-28T08:40:58.400Z,65.3
2019-04-28T08:41:46.633Z,65.2
2019-04-28T08:41:59.211Z,65.2
2019-04-28T08:42:33.988Z,64.7
2019-04-28T08:43:22.786Z,65.0
2019-04-28T08:44:10.424Z,65.5
2019-04-28T08:44:58.596Z,65.8
2019-04-28T08:45:46.857Z,66.1
2019-04-28T08:46:40.376Z,65.9
2019-04-28T08:47:29.142Z,66.1
2019-04-28T08:48:16.792Z,66.4
2019-04-28T08:49:05.008Z,65.8
2019-04-28T08:49:53.192Z,66.2
2019-04-28T08:50:46.764Z,66.0
2019-04-28T08:51:35.549Z,65.8
2019-04-28T08:52:23.179Z,64.9
2019-04-28T08:53:13.900Z,63.5
2019-04-28T08:53:59.566Z,63.6
2019-04-28T08:54:53.159Z,63.4
2019-04-28T08:55:41.950Z,63.5
2019-04-28T08:56:29.578Z,62.6
2019-04-28T08:57:17.739Z,62.2
2019-04-28T08:58:05.954Z,62.5
2019-04-28T08:58:59.554Z,61.8
2019-04-28T08:59:05.053Z,61.8
2019-04-28T08:59:42.671Z,62.0
2019-04-28T09:00:30.329Z,62.4
2019-04-28T09:01:18.539Z,62.3
2019-04-28T09:02:06.760Z,62.5
2019-04-28T09:03:00.894Z,61.7
2019-04-28T09:03:49.558Z,61.7
2019-04-28T09:04:36.712Z,61.4
2019-04-28T09:05:24.917Z,61.6
2019-04-28T09:06:13.117Z,61.9
2019-04-28T09:07:06.677Z,61.8
2019-04-28T09:07:55.463Z,61.9
2019-04-28T09:08:43.098Z,61.6
2019-04-28T09:09:31.284Z,62.0
2019-04-28T09:10:19.494Z,61.7
2019-04-28T09:11:13.063Z,62.1
2019-04-28T09:12:01.856Z,62.4
2019-04-28T09:12:49.486Z,62.8
2019-04-28T09:13:37.682Z,63.0
2019-04-28T09:14:25.873Z,62.6
2019-04-28T09:15:19.453Z,60.8
2019-04-28T09:16:08.216Z,60.7
2019-04-28T09:16:55.858Z,61.1
2019-04-28T09:17:44.193Z,61.6
2019-04-28T09:18:32.879Z,61.0
2019-04-28T09:19:25.838Z,60.6
2019-04-28T09:20:14.702Z,60.2
2019-04-28T09:21:02.302Z,60.3
2019-04-28T09:21:50.500Z,60.2
2019-04-28T09:22:38.665Z,60.0
2019-04-28T09:23:32.271Z,60.0
2019-04-28T09:24:21.049Z,58.7
2019-04-28T09:25:08.669Z,59.1
2019-04-28T09:25:56.870Z,58.9
2019-04-28T09:26:45.066Z,59.5
2019-04-28T09:27:38.632Z,58.6
2019-04-28T09:28:27.408Z,58.6
2019-04-28T09:29:15.056Z,58.1
2019-04-28T09:30:03.261Z,56.8
2019-04-28T09:30:51.463Z,56.7
2019-04-28T09:31:45.035Z,55.1
2019-04-28T09:32:33.858Z,54.1
2019-04-28T09:33:21.497Z,54.2
2019-04-28T09:34:09.761Z,53.4
2019-04-28T09:34:57.888Z,54.3
2019-04-28T09:35:51.520Z,54.1
2019-04-28T09:36:40.270Z,53.9
2019-04-28T09:37:27.907Z,53.6
2019-04-28T09:38:16.113Z,53.6
2019-04-28T09:39:04.332Z,54.3
2019-04-28T09:39:57.911Z,54.3
2019-04-28T09:40:46.691Z,53.9
2019-04-28T09:41:34.362Z,52.8
2019-04-28T09:42:22.578Z,52.6
2019-04-28T09:43:10.798Z,52.5
2019-04-28T09:44:04.367Z,52.0
2019-04-28T09:44:53.065Z,52.8
2019-04-28T09:45:17.696Z,52.8
2019-04-28T09:45:38.107Z,53.4
2019-04-28T09:46:26.324Z,53.7
2019-04-28T09:47:14.544Z,54.0
2019-04-28T09:48:08.131Z,54.9
2019-04-28T09:48:56.919Z,55.3
2019-04-28T09:49:44.620Z,54.4
2019-04-28T09:50:32.840Z,53.4
2019-04-28T09:51:21.036Z,51.2
2019-04-28T09:52:14.629Z,50.8
2019-04-28T09:53:03.405Z,50.6
2019-04-28T09:53:51.088Z,50.8
2019-04-28T09:54:39.337Z,51.8
2019-04-28T09:55:27.524Z,52.0
2019-04-28T09:56:21.114Z,52.3
2019-04-28T09:57:09.896Z,52.8
2019-04-28T09:57:41.390Z,52.8
2019-04-28T09:57:54.815Z,52.9
2019-04-28T09:58:40.834Z,53.4
2019-04-28T09:59:29.080Z,53.4
2019-04-28T10:00:22.664Z,53.8
2019-04-28T10:01:11.478Z,53.9
2019-04-28T10:01:59.108Z,54.0
2019-04-28T10:02:47.361Z,54.4
2019-04-28T10:03:35.561Z,54.3
2019-04-28T10:04:41.018Z,54.4
2019-04-28T10:05:17.899Z,53.8
2019-04-28T10:06:05.585Z,54.2
2019-04-28T10:06:53.811Z,54.6
2019-04-28T10:07:42.027Z,54.9
2019-04-28T10:08:36.703Z,54.0
2019-04-28T10:09:24.381Z,53.8
2019-04-28T10:10:12.071Z,54.1
2019-04-28T10:11:00.297Z,53.7
2019-04-28T10:11:48.511Z,53.6
2019-04-28T10:12:42.106Z,53.9
2019-04-28T10:13:30.935Z,53.4
2019-04-28T10:14:18.582Z,52.4
2019-04-28T10:14:39.303Z,52.4
2019-04-28T10:14:59.698Z,53.0
2019-04-28T10:15:47.930Z,53.2
2019-04-28T10:16:41.533Z,53.4
2019-04-28T10:17:30.319Z,53.2
2019-04-28T10:18:17.990Z,53.6
2019-04-28T10:19:06.217Z,52.7
2019-04-28T10:19:54.461Z,51.9
2019-04-28T10:20:48.029Z,52.6
2019-04-28T10:21:36.803Z,52.5
2019-04-28T10:22:24.485Z,52.4
2019-04-28T10:23:12.723Z,52.1
2019-04-28T10:24:00.937Z,47.8
2019-04-28T10:24:54.572Z,44.7
2019-04-28T10:25:43.794Z,43.4
2019-04-28T10:26:31.037Z,41.3
2019-04-28T10:27:19.303Z,40.2
2019-04-28T10:28:07.581Z,39.4
2019-04-28T10:29:01.194Z,38.5
2019-04-28T10:29:50.138Z,37.9
2019-04-28T10:30:37.815Z,37.6
2019-04-28T10:31:26.109Z,37.1
2019-04-28T10:32:14.418Z,35.8
2019-04-28T10:33:08.102Z,36.7
2019-04-28T10:33:56.969Z,35.7
2019-04-28T10:34:54.761Z,35.9
2019-04-28T10:35:33.160Z,34.9
2019-04-28T10:36:21.551Z,35.0
2019-04-28T10:37:15.227Z,34.6